createdAt,value
2022-09-23T00:00:46.334Z,101375.89
2022-09-23T00:03:33.042Z,101378.72
2022-09-23T00:06:10.840Z,101380.86
2022-09-23T00:08:40.642Z,101379.20
2022-09-23T00:11:13.008Z,101378.70
2022-09-23T00:13:44.832Z,101378.49
2022-09-23T00:16:17.621Z,101376.77
2022-09-23T00:18:46.269Z,101373.70
2022-09-23T00:21:15.095Z,101372.80
2022-09-23T00:23:44.122Z,101371.92
2022-09-23T00:26:16.369Z,101369.73
2022-09-23T00:28:46.023Z,101371.05
2022-09-23T00:31:24.074Z,101367.92
2022-09-23T00:33:58.941Z,101362.35
2022-09-23T00:36:29.227Z,101363.36
2022-09-23T00:38:58.387Z,101363.10
2022-09-23T00:41:27.934Z,101363.64
2022-09-23T00:44:01.075Z,101363.19
2022-09-23T00:46:39.208Z,101364.83
2022-09-23T00:49:18.359Z,101364.29
2022-09-23T00:51:54.630Z,101364.53
2022-09-23T00:54:25.257Z,101370.74
2022-09-23T00:56:55.062Z,101370.15
2022-09-23T00:59:24.624Z,101371.80
2022-09-23T01:01:56.516Z,101376.69
2022-09-23T01:04:27.375Z,101377.17
2022-09-23T01:06:55.946Z,101375.58
2022-09-23T01:09:25.589Z,101377.45
2022-09-23T01:12:34.751Z,101377.78
2022-09-23T01:15:44.393Z,101377.80
2022-09-23T01:18:37.638Z,101374.75
2022-09-23T01:21:48.536Z,101377.67
2022-09-23T01:24:38.366Z,101373.73
2022-09-23T01:27:13.970Z,101377.31
2022-09-23T01:30:12.466Z,101380.40
2022-09-23T01:33:14.800Z,101380.14
2022-09-23T01:36:07.422Z,101383.17
2022-09-23T01:38:44.971Z,101380.12
2022-09-23T01:41:45.727Z,101376.44
2022-09-23T01:44:43.263Z,101379.61
2022-09-23T01:47:27.476Z,101379.70
2022-09-23T01:50:44.578Z,101379.36
2022-09-23T01:53:21.198Z,101379.41
2022-09-23T01:55:57.437Z,101382.86
2022-09-23T01:58:51.233Z,101384.48
2022-09-23T02:01:56.314Z,101386.05
2022-09-23T02:05:00.480Z,101383.24
2022-09-23T02:07:33.071Z,101387.27
2022-09-23T02:10:25.698Z,101389.14
2022-09-23T02:13:05.639Z,101390.20
2022-09-23T02:15:50.758Z,101391.92
2022-09-23T02:18:26.911Z,101388.92
2022-09-23T02:21:00.582Z,101391.00
2022-09-23T02:23:55.439Z,101391.02
2022-09-23T02:26:41.696Z,101390.68
2022-09-23T02:29:31.068Z,101394.63
2022-09-23T02:32:24.993Z,101396.69
2022-09-23T02:35:14.456Z,101398.80
2022-09-23T02:38:30.218Z,101400.79
2022-09-23T02:41:06.427Z,101401.63
2022-09-23T02:43:46.484Z,101400.10
2022-09-23T02:46:15.600Z,101397.25
2022-09-23T02:49:03.009Z,101399.45
2022-09-23T02:51:34.686Z,101397.58
2022-09-23T02:54:05.012Z,101397.80
2022-09-23T02:56:35.088Z,101393.31
2022-09-23T02:59:04.561Z,101399.38
2022-09-23T03:02:07.183Z,101398.13
2022-09-23T03:05:05.369Z,101393.99
2022-09-23T03:08:13.915Z,101399.55
2022-09-23T03:11:06.043Z,101396.46
2022-09-23T03:14:05.352Z,101399.12
2022-09-23T03:16:50.667Z,101395.11
2022-09-23T03:19:24.266Z,101399.50
2022-09-23T03:22:35.399Z,101403.14
2022-09-23T03:25:09.778Z,101404.50
2022-09-23T03:27:39.393Z,101405.56
2022-09-23T03:30:09.927Z,101407.87
2022-09-23T03:32:38.971Z,101405.34
2022-09-23T03:35:08.401Z,101408.56
2022-09-23T03:37:44.847Z,101408.94
2022-09-23T03:40:16.923Z,101404.23
2022-09-23T03:42:49.094Z,101405.56
2022-09-23T03:45:26.658Z,101401.02
2022-09-23T03:47:55.477Z,101400.26
2022-09-23T03:50:24.643Z,101398.27
2022-09-23T03:52:53.705Z,101397.13
2022-09-23T03:55:22.911Z,101398.77
2022-09-23T03:57:51.634Z,101397.16
2022-09-23T04:00:20.601Z,101398.00
2022-09-23T04:02:50.128Z,101398.64
2022-09-23T04:05:19.039Z,101401.13
2022-09-23T04:07:49.071Z,101403.19
2022-09-23T04:10:17.684Z,101402.90
2022-09-23T04:12:46.509Z,101402.14
2022-09-23T04:15:15.030Z,101396.40
2022-09-23T04:17:43.628Z,101397.93
2022-09-23T04:20:12.325Z,101400.77
2022-09-23T04:22:41.666Z,101399.48
2022-09-23T04:25:10.752Z,101402.02
2022-09-23T04:27:39.258Z,101399.84
2022-09-23T04:30:09.330Z,101401.05
2022-09-23T04:32:38.825Z,101401.38
2022-09-23T04:35:08.468Z,101399.16
2022-09-23T04:37:37.456Z,101401.96
2022-09-23T04:40:08.647Z,101403.91
2022-09-23T04:42:37.435Z,101404.36
2022-09-23T04:45:06.880Z,101407.10
2022-09-23T04:47:35.543Z,101409.72
2022-09-23T04:50:04.462Z,101409.73
2022-09-23T04:52:33.122Z,101407.25
2022-09-23T04:55:02.242Z,101408.27
2022-09-23T04:57:31.046Z,101409.27
2022-09-23T04:59:59.943Z,101409.83
2022-09-23T05:02:28.757Z,101412.99
2022-09-23T05:04:58.489Z,101413.98
2022-09-23T05:07:27.277Z,101417.04
2022-09-23T05:09:55.941Z,101416.35
2022-09-23T05:12:24.667Z,101418.54
2022-09-23T05:14:53.210Z,101417.84
2022-09-23T05:17:21.931Z,101419.95
2022-09-23T05:19:50.643Z,101416.42
2022-09-23T05:22:19.327Z,101418.20
2022-09-23T05:24:48.058Z,101421.46
2022-09-23T05:27:16.688Z,101423.35
2022-09-23T05:29:45.259Z,101417.89
2022-09-23T05:32:15.537Z,101419.63
2022-09-23T05:34:44.331Z,101421.90
2022-09-23T05:37:13.079Z,101418.02
2022-09-23T05:39:41.727Z,101419.13
2022-09-23T05:42:12.658Z,101421.92
2022-09-23T05:44:41.738Z,101418.06
2022-09-23T05:47:10.712Z,101419.77
2022-09-23T05:49:58.689Z,101421.40
2022-09-23T05:52:28.609Z,101420.72
2022-09-23T05:54:57.317Z,101417.58
2022-09-23T05:57:26.298Z,101420.38
2022-09-23T05:59:55.008Z,101422.00
2022-09-23T06:02:23.899Z,101421.61
2022-09-23T06:04:52.837Z,101423.52
2022-09-23T06:07:21.437Z,101422.99
2022-09-23T06:09:50.787Z,101418.08
2022-09-23T06:12:19.411Z,101415.05
2022-09-23T06:14:48.939Z,101414.47
2022-09-23T06:17:17.622Z,101413.45
2022-09-23T06:19:46.316Z,101416.46
2022-09-23T06:22:17.233Z,101418.53
2022-09-23T06:24:46.229Z,101420.27
2022-09-23T06:27:15.004Z,101421.95
2022-09-23T06:29:44.148Z,101422.47
2022-09-23T06:32:12.905Z,101418.55
2022-09-23T06:34:50.836Z,101419.36
2022-09-23T06:37:21.011Z,101419.39
2022-09-23T06:39:50.460Z,101416.80
2022-09-23T06:42:19.227Z,101417.70
2022-09-23T06:44:47.754Z,101416.93
2022-09-23T06:47:16.861Z,101414.77
2022-09-23T06:49:45.681Z,101421.17
2022-09-23T06:52:14.485Z,101426.50
2022-09-23T06:54:43.192Z,101425.85
2022-09-23T06:57:12.232Z,101429.05
2022-09-23T06:59:42.042Z,101424.44
2022-09-23T07:02:11.317Z,101426.64
2022-09-23T07:04:40.175Z,101427.30
2022-09-23T07:07:10.647Z,101430.98
2022-09-23T07:09:39.483Z,101430.54
2022-09-23T07:12:08.664Z,101430.33
2022-09-23T07:14:37.566Z,101426.27
2022-09-23T07:17:06.393Z,101429.65
2022-09-23T07:19:35.753Z,101430.53
2022-09-23T07:22:05.692Z,101427.71
2022-09-23T07:24:34.634Z,101428.42
2022-09-23T07:27:03.215Z,101431.77
2022-09-23T07:29:42.405Z,101432.59
2022-09-23T07:32:14.336Z,101435.70
2022-09-23T07:34:44.599Z,101436.23
2022-09-23T07:37:15.001Z,101438.05
2022-09-23T07:39:44.849Z,101434.73
2022-09-23T07:42:14.510Z,101434.16
2022-09-23T07:44:48.067Z,101433.45
2022-09-23T07:47:18.027Z,101428.91
2022-09-23T07:49:46.988Z,101431.09
2022-09-23T07:52:15.726Z,101426.42
2022-09-23T07:54:47.906Z,101423.25
2022-09-23T07:57:16.677Z,101420.39
2022-09-23T07:59:46.669Z,101419.60
2022-09-23T08:02:16.678Z,101413.52
2022-09-23T08:04:46.554Z,101407.80
2022-09-23T08:07:15.515Z,101406.36
2022-09-23T08:09:44.936Z,101404.55
2022-09-23T08:12:19.174Z,101407.66
2022-09-23T08:14:48.035Z,101398.44
2022-09-23T08:17:17.287Z,101398.48
2022-09-23T08:19:45.930Z,101394.16
2022-09-23T08:22:16.392Z,101389.92
2022-09-23T08:24:45.071Z,101389.64
2022-09-23T08:27:14.658Z,101389.92
2022-09-23T08:29:43.477Z,101394.95
2022-09-23T08:32:12.113Z,101395.17
2022-09-23T08:34:40.866Z,101399.48
2022-09-23T08:37:11.402Z,101400.64
2022-09-23T08:39:40.323Z,101394.59
2022-09-23T08:42:24.539Z,101388.83
2022-09-23T08:44:59.938Z,101392.02
2022-09-23T08:48:16.371Z,101388.39
2022-09-23T08:50:52.688Z,101395.37
2022-09-23T08:53:36.598Z,101393.67
2022-09-23T08:56:18.198Z,101391.21
2022-09-23T08:59:07.892Z,101390.09
2022-09-23T09:01:44.805Z,101386.91
2022-09-23T09:04:39.851Z,101382.56
2022-09-23T09:07:34.606Z,101381.33
2022-09-23T09:10:18.925Z,101376.37
2022-09-23T09:13:04.539Z,101380.19
2022-09-23T09:15:43.199Z,101376.13
2022-09-23T09:18:21.620Z,101373.55
2022-09-23T09:21:32.716Z,101368.73
2022-09-23T09:24:03.093Z,101369.63
2022-09-23T09:26:35.790Z,101370.86
2022-09-23T09:29:34.736Z,101373.71
2022-09-23T09:32:35.928Z,101373.45
2022-09-23T09:35:26.130Z,101381.58
2022-09-23T09:37:56.218Z,101379.23
2022-09-23T09:40:25.860Z,101377.70
2022-09-23T09:42:55.065Z,101379.03
2022-09-23T09:45:24.384Z,101379.30
2022-09-23T09:48:20.911Z,101380.27
2022-09-23T09:50:52.195Z,101374.14
2022-09-23T09:53:22.555Z,101377.41
2022-09-23T09:56:08.656Z,101378.31
2022-09-23T09:58:49.247Z,101378.52
2022-09-23T10:01:33.149Z,101382.16
2022-09-23T10:04:06.034Z,101384.58
2022-09-23T10:06:36.226Z,101379.16
2022-09-23T10:09:21.785Z,101380.84
2022-09-23T10:12:26.050Z,101379.10
2022-09-23T10:14:57.903Z,101374.20
2022-09-23T10:17:34.559Z,101380.55
2022-09-23T10:20:15.171Z,101375.70
2022-09-23T10:22:44.031Z,101372.69
2022-09-23T10:25:27.865Z,101372.42
2022-09-23T10:27:56.616Z,101372.30
2022-09-23T10:30:28.479Z,101368.95
2022-09-23T10:32:57.583Z,101370.77
2022-09-23T10:35:28.413Z,101362.96
2022-09-23T10:38:00.303Z,101362.33
2022-09-23T10:41:02.241Z,101362.10
2022-09-23T10:44:15.107Z,101358.06
2022-09-23T10:47:21.002Z,101354.35
2022-09-23T10:50:10.269Z,101354.13
2022-09-23T10:52:56.473Z,101343.24
2022-09-23T10:55:47.178Z,101340.84
2022-09-23T10:58:33.292Z,101341.05
2022-09-23T11:01:39.856Z,101343.30
2022-09-23T11:04:52.771Z,101346.34
2022-09-23T11:07:37.350Z,101338.40
2022-09-23T11:10:23.195Z,101330.95
2022-09-23T11:13:24.776Z,101330.33
2022-09-23T11:16:02.669Z,101323.78
2022-09-23T11:18:58.371Z,101321.85
2022-09-23T11:22:01.628Z,101319.63
2022-09-23T11:24:34.196Z,101316.40
2022-09-23T11:27:11.811Z,101318.41
2022-09-23T11:30:11.457Z,101313.31
2022-09-23T11:33:06.424Z,101318.38
2022-09-23T11:35:41.976Z,101312.66
2022-09-23T11:38:37.951Z,101306.54
2022-09-23T11:41:26.031Z,101306.91
2022-09-23T11:44:31.477Z,101306.63
2022-09-23T11:47:22.341Z,101302.25
2022-09-23T11:50:07.662Z,101303.50
2022-09-23T11:53:21.908Z,101304.98
2022-09-23T11:56:01.179Z,101304.30
2022-09-23T11:59:39.424Z,101301.56
2022-09-23T12:03:03.994Z,101308.09
2022-09-23T12:05:48.882Z,101306.21
2022-09-23T12:08:45.626Z,101309.08
2022-09-23T12:11:22.095Z,101302.17
2022-09-23T12:14:19.457Z,101302.60
2022-09-23T12:17:12.656Z,101294.10
2022-09-23T12:20:22.766Z,101294.14
2022-09-23T12:23:09.899Z,101287.61
2022-09-23T12:25:48.588Z,101285.98
2022-09-23T12:28:23.719Z,101285.12
2022-09-23T12:30:56.211Z,101284.09
2022-09-23T12:33:31.277Z,101283.79
2022-09-23T12:36:08.087Z,101279.41
2022-09-23T12:38:51.605Z,101269.98
2022-09-23T12:41:24.347Z,101269.34
2022-09-23T12:44:14.191Z,101263.88
2022-09-23T12:46:45.557Z,101263.58
2022-09-23T12:49:29.495Z,101262.29
2022-09-23T12:52:25.375Z,101263.20
2022-09-23T12:55:24.575Z,101261.62
2022-09-23T12:57:53.613Z,101259.78
2022-09-23T13:00:29.834Z,101260.90
2022-09-23T13:03:19.704Z,101262.30
2022-09-23T13:06:11.234Z,101262.30
2022-09-23T13:08:42.038Z,101264.34
2022-09-23T13:11:29.723Z,101260.25
2022-09-23T13:14:03.017Z,101257.33
2022-09-23T13:16:45.951Z,101256.36
2022-09-23T13:19:41.232Z,101258.27
2022-09-23T13:22:11.421Z,101254.50
2022-09-23T13:24:46.530Z,101251.29
2022-09-23T13:27:31.249Z,101244.96
2022-09-23T13:30:26.123Z,101242.54
2022-09-23T13:33:12.969Z,101232.61
2022-09-23T13:35:51.064Z,101234.65
2022-09-23T13:38:32.155Z,101232.30
2022-09-23T13:41:08.102Z,101236.75
2022-09-23T13:43:41.609Z,101243.13
2022-09-23T13:46:20.834Z,101248.55
2022-09-23T13:48:56.614Z,101248.17
2022-09-23T13:51:32.302Z,101249.67
2022-09-23T13:54:03.574Z,101252.05
2022-09-23T13:56:35.455Z,101252.45
2022-09-23T13:59:42.521Z,101252.95
2022-09-23T14:02:20.181Z,101258.66
2022-09-23T14:04:49.645Z,101260.02
2022-09-23T14:07:20.112Z,101256.75
2022-09-23T14:09:52.670Z,101262.24
2022-09-23T14:12:24.862Z,101263.94
2022-09-23T14:14:53.718Z,101265.04
2022-09-23T14:17:23.225Z,101265.59
2022-09-23T14:19:52.137Z,101267.55
2022-09-23T14:22:27.425Z,101271.83
2022-09-23T14:24:57.044Z,101270.79
2022-09-23T14:27:31.396Z,101273.95
2022-09-23T14:30:02.474Z,101278.71
2022-09-23T14:32:33.406Z,101282.18
2022-09-23T14:35:04.787Z,101284.60
2022-09-23T14:37:56.914Z,101283.95
2022-09-23T14:40:34.185Z,101280.34
2022-09-23T14:43:05.775Z,101275.63
2022-09-23T14:45:38.151Z,101277.59
2022-09-23T14:48:15.912Z,101275.67
2022-09-23T14:50:52.079Z,101271.41
2022-09-23T14:53:22.650Z,101270.28
2022-09-23T14:55:57.498Z,101268.29
2022-09-23T14:58:31.029Z,101270.02
2022-09-23T15:01:01.747Z,101272.12
2022-09-23T15:03:30.484Z,101275.23
2022-09-23T15:06:09.467Z,101272.81
2022-09-23T15:08:43.730Z,101272.05
2022-09-23T15:11:13.200Z,101269.27
2022-09-23T15:13:49.505Z,101275.70
2022-09-23T15:16:26.245Z,101277.44
2022-09-23T15:18:59.290Z,101276.27
2022-09-23T15:21:48.057Z,101276.27
2022-09-23T15:24:36.633Z,101269.63
2022-09-23T15:27:31.310Z,101272.77
2022-09-23T15:30:20.085Z,101270.55
2022-09-23T15:32:48.779Z,101271.93
2022-09-23T15:35:26.865Z,101272.32
2022-09-23T15:38:03.506Z,101275.20
2022-09-23T15:40:37.305Z,101278.30
2022-09-23T15:43:22.788Z,101279.61
2022-09-23T15:45:58.563Z,101284.40
2022-09-23T15:48:37.266Z,101287.27
2022-09-23T15:51:10.104Z,101290.38
2022-09-23T15:53:38.779Z,101296.73
2022-09-23T15:56:07.566Z,101297.54
2022-09-23T15:58:36.097Z,101299.91
2022-09-23T16:01:05.565Z,101304.27
2022-09-23T16:03:34.289Z,101308.77
2022-09-23T16:06:04.400Z,101310.33
2022-09-23T16:08:33.421Z,101313.08
2022-09-23T16:11:02.237Z,101314.39
2022-09-23T16:13:30.855Z,101315.52
2022-09-23T16:15:59.460Z,101315.69
2022-09-23T16:18:28.977Z,101312.88
2022-09-23T16:20:59.234Z,101309.73
2022-09-23T16:23:37.732Z,101306.42
2022-09-23T16:26:07.754Z,101307.85
2022-09-23T16:28:36.507Z,101309.89
2022-09-23T16:31:05.592Z,101312.06
2022-09-23T16:33:34.418Z,101316.23
2022-09-23T16:36:06.127Z,101314.60
2022-09-23T16:38:35.004Z,101318.14
2022-09-23T16:41:03.819Z,101315.80
2022-09-23T16:43:35.141Z,101317.96
2022-09-23T16:46:03.684Z,101321.95
2022-09-23T16:48:32.296Z,101324.77
2022-09-23T16:51:05.100Z,101322.09
2022-09-23T16:53:35.101Z,101319.97
2022-09-23T16:56:09.741Z,101323.28
2022-09-23T16:58:40.232Z,101322.36
2022-09-23T17:01:33.242Z,101322.26
2022-09-23T17:04:02.311Z,101323.40
2022-09-23T17:06:30.769Z,101328.49
2022-09-23T17:08:59.487Z,101328.71
2022-09-23T17:11:33.992Z,101327.84
2022-09-23T17:14:03.472Z,101328.09
2022-09-23T17:16:34.158Z,101331.74
2022-09-23T17:19:08.420Z,101332.02
2022-09-23T17:21:38.205Z,101335.88
2022-09-23T17:24:07.616Z,101338.24
2022-09-23T17:26:36.583Z,101343.21
2022-09-23T17:29:05.789Z,101345.86
2022-09-23T17:31:35.167Z,101347.09
2022-09-23T17:34:04.158Z,101351.21
2022-09-23T17:36:32.843Z,101355.02
2022-09-23T17:39:01.712Z,101355.48
2022-09-23T17:41:30.495Z,101353.58
2022-09-23T17:44:00.677Z,101356.45
2022-09-23T17:46:31.147Z,101363.98
2022-09-23T17:49:01.269Z,101361.34
2022-09-23T17:51:30.363Z,101359.47
2022-09-23T17:53:59.216Z,101355.00
2022-09-23T17:56:31.677Z,101358.48
2022-09-23T17:59:02.361Z,101358.80
2022-09-23T18:01:31.571Z,101357.92
2022-09-23T18:04:05.743Z,101356.79
2022-09-23T18:06:37.507Z,101356.05
2022-09-23T18:09:08.817Z,101357.70
2022-09-23T18:11:42.999Z,101361.39
2022-09-23T18:14:18.690Z,101361.52
2022-09-23T18:16:53.865Z,101361.92
2022-09-23T18:19:24.789Z,101357.88
2022-09-23T18:21:56.621Z,101357.08
2022-09-23T18:24:32.239Z,101354.33
2022-09-23T18:27:01.978Z,101354.77
2022-09-23T18:29:31.763Z,101353.82
2022-09-23T18:32:00.353Z,101349.58
2022-09-23T18:34:30.769Z,101350.04
2022-09-23T18:36:59.398Z,101353.43
2022-09-23T18:39:28.685Z,101348.96
2022-09-23T18:41:57.213Z,101350.64
2022-09-23T18:44:25.813Z,101347.02
2022-09-23T18:46:54.364Z,101345.36
2022-09-23T18:49:41.118Z,101346.76
2022-09-23T18:52:09.975Z,101348.08
2022-09-23T18:54:38.485Z,101352.31
2022-09-23T18:57:07.809Z,101352.77
2022-09-23T18:59:36.506Z,101350.90
2022-09-23T19:02:05.271Z,101354.90
2022-09-23T19:04:33.948Z,101357.61
2022-09-23T19:07:02.956Z,101359.20
2022-09-23T19:09:31.499Z,101359.45
2022-09-23T19:12:01.047Z,101360.32
2022-09-23T19:14:29.781Z,101358.81
2022-09-23T19:16:59.100Z,101357.52
2022-09-23T19:19:30.244Z,101357.55
2022-09-23T19:21:59.172Z,101359.70
2022-09-23T19:24:28.231Z,101356.84
2022-09-23T19:26:56.881Z,101358.48
2022-09-23T19:29:25.556Z,101360.93
2022-09-23T19:31:54.242Z,101362.63
2022-09-23T19:34:26.188Z,101361.89
2022-09-23T19:36:57.571Z,101360.31
2022-09-23T19:39:31.729Z,101362.50
2022-09-23T19:42:00.433Z,101365.38
2022-09-23T19:44:29.800Z,101370.92
2022-09-23T19:46:58.988Z,101369.37
2022-09-23T19:49:28.099Z,101367.90
2022-09-23T19:51:57.082Z,101370.17
2022-09-23T19:54:27.780Z,101371.04
2022-09-23T19:56:56.612Z,101369.11
2022-09-23T19:59:26.664Z,101372.62
2022-09-23T20:01:55.711Z,101373.80
2022-09-23T20:04:24.666Z,101375.54
2022-09-23T20:06:53.774Z,101376.62
2022-09-23T20:09:22.660Z,101375.35
2022-09-23T20:11:52.441Z,101377.39
2022-09-23T20:14:22.690Z,101376.05
2022-09-23T20:16:52.180Z,101375.00
2022-09-23T20:19:20.807Z,101371.35
2022-09-23T20:22:09.322Z,101371.41
2022-09-23T20:24:38.060Z,101372.64
2022-09-23T20:27:09.634Z,101373.56
2022-09-23T20:29:38.315Z,101371.02
2022-09-23T20:32:06.970Z,101371.41
2022-09-23T20:34:35.670Z,101368.49
2022-09-23T20:37:05.786Z,101369.92
2022-09-23T20:39:34.188Z,101369.82
2022-09-23T20:42:03.229Z,101371.36
2022-09-23T20:44:35.753Z,101368.63
2022-09-23T20:47:04.469Z,101367.97
2022-09-23T20:49:35.109Z,101363.40
2022-09-23T20:52:03.667Z,101364.03
2022-09-23T20:54:32.655Z,101360.45
2022-09-23T20:57:01.429Z,101362.52
2022-09-23T20:59:30.513Z,101359.91
2022-09-23T21:01:59.258Z,101357.48
2022-09-23T21:04:29.288Z,101354.44
2022-09-23T21:06:58.578Z,101352.66
2022-09-23T21:09:29.132Z,101351.33
2022-09-23T21:11:57.688Z,101351.40
2022-09-23T21:14:26.243Z,101353.14
2022-09-23T21:16:57.537Z,101351.91
2022-09-23T21:19:34.347Z,101351.89
2022-09-23T21:22:04.799Z,101353.52
2022-09-23T21:25:12.173Z,101350.49
2022-09-23T21:27:23.014Z,101353.55
2022-09-23T21:29:51.619Z,101356.70
2022-09-23T21:32:20.221Z,101355.80
2022-09-23T21:34:49.172Z,101354.44
2022-09-23T21:37:17.736Z,101354.04
2022-09-23T21:40:06.373Z,101356.27
2022-09-23T21:42:35.625Z,101352.60
2022-09-23T21:45:05.333Z,101353.05
2022-09-23T21:47:34.048Z,101356.16
2022-09-23T21:50:03.092Z,101356.65
2022-09-23T21:52:31.558Z,101350.34
2022-09-23T21:55:00.260Z,101352.79
2022-09-23T21:57:30.918Z,101356.06
2022-09-23T21:59:59.531Z,101357.27
2022-09-23T22:02:28.049Z,101356.83
2022-09-23T22:04:56.485Z,101350.88
2022-09-23T22:07:25.100Z,101343.64
2022-09-23T22:09:53.552Z,101339.26
2022-09-23T22:12:22.203Z,101339.13
2022-09-23T22:14:51.865Z,101343.14
2022-09-23T22:17:21.417Z,101345.10
2022-09-23T22:19:51.527Z,101347.52
2022-09-23T22:22:20.137Z,101342.71
2022-09-23T22:24:49.164Z,101351.08
2022-09-23T22:27:19.871Z,101347.11
2022-09-23T22:30:06.778Z,101348.41
2022-09-23T22:32:41.341Z,101346.79
2022-09-23T22:35:18.752Z,101345.07
2022-09-23T22:37:48.583Z,101346.50
2022-09-23T22:40:17.309Z,101353.80
2022-09-23T22:42:46.447Z,101355.27
2022-09-23T22:45:15.341Z,101357.91
2022-09-23T22:47:45.836Z,101359.85
2022-09-23T22:50:15.502Z,101362.48
2022-09-23T22:52:45.128Z,101362.15
2022-09-23T22:55:13.832Z,101359.94
2022-09-23T22:57:42.473Z,101358.37
2022-09-23T23:00:12.572Z,101353.32
2022-09-23T23:02:42.646Z,101350.96
2022-09-23T23:05:11.742Z,101350.05
2022-09-23T23:07:41.393Z,101348.88
2022-09-23T23:10:10.543Z,101346.94
2022-09-23T23:12:40.336Z,101348.48
2022-09-23T23:15:12.909Z,101342.67
2022-09-23T23:17:43.874Z,101340.50
2022-09-23T23:20:12.533Z,101344.45
2022-09-23T23:22:41.187Z,101347.11
2022-09-23T23:25:10.063Z,101344.77
2022-09-23T23:27:38.768Z,101339.63
2022-09-23T23:30:08.782Z,101341.06
2022-09-23T23:32:37.810Z,101337.29
2022-09-23T23:35:07.025Z,101339.76
2022-09-23T23:37:35.580Z,101339.82
2022-09-23T23:40:05.516Z,101336.05
2022-09-23T23:42:34.830Z,101337.25
2022-09-23T23:47:39.514Z,101338.02
2022-09-23T23:50:09.459Z,101339.27
2022-09-23T23:52:36.904Z,101338.91
2022-09-23T23:55:04.750Z,101335.34
2022-09-23T23:57:31.970Z,101334.63
2022-09-23T23:59:59.326Z,101334.36
